Aktualne dane pomiarowe

Uwaga, wersja testowa! Automatyczne pobieranie danych za pomocą narzędzi lub skryptów to umożliwiających jest zabronione.

Dane meteo z obszaru Polski uzyskane na podstawie depesz SYNOP pobieranych co godzinę z NWS. Najedź myszką na symbol przedstawiony w tabeli, aby uzyskać informacje co do jego znaczenia. Prosimy pamiętać, że to testowa wersja strony, która jeszcze nie jest ukończona. Stworzono również jest krótki FAQ dotyczący korzystania z tej podstrony Anomalie temperatury w chwili obecnej odniesione są do okresu referencyjnego 1951-2016. Okres ten będzie później zmieniony na 1981-2010. Kliknij ikonę aby pobrać plik CSV. Kliknij ikonę aby wygenerować mapę synoptyczną dla danego terminu.

Wybierz Datę:    

        

Powidz (12336)

Dane terminowe dla wybranej stacji. Kliknij datę, aby otrzymać dane z tego terminu dla wszystkich stacji.

TemperaturaZachmurzenieWiatrCiśnienieOpadyPogoda
 Data t td wb tx tn tg rh  Nt Nl Cl Cm Ch ws wd g1 g2 wx mslp ppp ch 24h 12h t ww ww w1 w2  
2019-08-09 23:00:00 15.9 11.8 13.2--- 7710.0wx-wx3wx---1013.3 999.4 0.0---------
2019-08-09 22:00:00 17.5 11.5 13.7--- 6810.0wx-wx2wx---1013.3 999.5 0.3---------
2019-08-09 21:00:00 17.5 11.3 13.6--- 6710.0wx-wx2wx---1013.5 999.7 0.7---------
2019-08-09 20:00:00 17.1 12.4 14.0--- 7410.0wx-wx2wx---1013.2 999.4 0.7---------
2019-08-09 19:00:00 21.3 10.8 15.0--- 5110.0wx-wxwx2wx---1012.8 999.2 0.5---------
2019-08-09 18:00:00 22.6 11.2 15.7--- 4910.0wx-wxwx1wx---1012.4 998.9 0.1---------
2019-08-09 17:00:00 24.4 10.0 15.9--- 4010.0wx-wxwx2wx---1012.1 998.6 -0.2---------
2019-08-09 16:00:00 25.0 10.5 16.4--- 4010.0wxwxwxwxwx3wx---1012.2 998.7 -0.3---------
2019-08-09 15:00:00 25.7 9.7 16.3--- 3710.0wxwxwxwx5wx---1012.1 998.6 -0.6---------
2019-08-09 14:00:00 26.0 9.3 16.3--- 3510.0wxwxwx7wx---1012.2 998.8 -0.4---------
2019-08-09 13:00:00 25.5 9.6 16.2--- 3710.0wxwxwx7wx---1012.4 999.0 -0.3---------
2019-08-09 12:00:00 25.0 9.8 16.1--- 3810.0wxwxwxwx8wx---1012.7 999.2 -0.2---------
2019-08-09 11:00:00 25.3 11.2 16.8--- 4110.0wxwxwxwx8wx---1012.5 999.1 -0.4---------
2019-08-09 10:00:00 23.8 11.3 16.3--- 4510.0wxwxwx6wx---1012.7 999.2 0.0---------
2019-08-09 09:00:00 22.8 11.9 16.1--- 5010.0wxwxwxwx5wx---1012.9 999.4 0.3---------
2019-08-09 08:00:00 22.3 13.5 16.7--- 5810.0wx-wx6wx---1013.0 999.4 0.3---------
2019-08-09 07:00:00 20.1 13.3 15.7--- 6510.0wx-wx3wx---1012.9 999.2 0.4---------
2019-08-09 06:00:00 17.2 14.2 15.1--- 8310.0wx-wx2wx---1012.8 999.0 0.2---------
2019-08-09 05:00:00 14.9 13.8 14.1--- 9310.0wx-wx1----1012.9 999.0 0.3---------
2019-08-09 04:00:00 13.2 12.7 12.8--- 9710.0wx-wx1----1012.7 998.7 0.4---wx---
2019-08-09 03:00:00 13.6 12.7 12.9--- 9410.0wx-wx1----1012.7 998.7 0.5---wx---
2019-08-09 02:00:00 13.7 12.9 13.1--- 9510.0wx-1----1012.7 998.7 0.6---------
2019-08-09 01:00:00 13.6 13.0 13.1--- 9610.0wx-1----1012.3 998.3 0.6---------
2019-08-09 00:00:00 14.0 13.5 13.6--- 9710.0wx-1wx---1012.2 998.2 0.7---------
2019-08-08 23:00:00 13.9 13.4 13.5--- 9710.0wx-wx1----1012.1 998.1 1.5---------
2019-08-08 22:00:00 16.0 13.8 14.5--- 8710.0wx-wx2wx---1011.5 997.7 1.4---wx-w1w2--
2019-08-08 21:00:00 15.1 14.3 14.5--- 956.0wxwxwx5wx10--1011.4 997.5 1.6---wx-w1--
2019-08-08 20:00:00 19.8 11.8 14.8--- 6010.0wxwxwxwx3wx---1010.3 996.7 0.6---------
2019-08-08 19:00:00 21.0 11.4 15.1--- 5410.0wxwxwx2wx---1009.9 996.3 0.3---------
2019-08-08 18:00:00 22.5 11.0 15.6--- 4810.0wx-wx3wx---1009.5 996.0 -0.1---------
2019-08-08 17:00:00 24.6 11.6 16.7--- 4410.0wxwxwx4wx---1009.5 996.1 -0.4---------
2019-08-08 16:00:00 25.0 10.6 16.5--- 4010.0wxwxwx6wx---1009.5 996.1 -0.6---------
2019-08-08 15:00:00 25.3 10.8 16.7--- 4010.0wxwxwx6wx---1009.5 996.1 -0.8---------
2019-08-08 14:00:00 23.9 12.6 16.9--- 4910.0wxwxwxwx6wx---1009.9 996.5 -0.3---------
2019-08-08 13:00:00 21.2 16.2 17.8--- 7310.0wxwxwx3wx---1010.3 996.7 0.2---------
2019-08-08 12:00:00 23.0 11.6 16.1--- 4910.0wxwxwx8wx---1010.4 996.9 0.4---wx---
2019-08-08 11:00:00 24.8 11.4 16.7--- 4310.0wxwxwx8wx---1010.2 996.8 0.8---------
2019-08-08 10:00:00 22.8 11.9 16.1--- 5010.0wxwxwx6wx---1010.0 996.5 0.9---------
2019-08-08 09:00:00 22.1 13.7 16.8--- 5910.0wxwxwx6wx---1010.0 996.5 1.7---------
2019-08-08 08:00:00 20.8 14.4 16.6--- 6710.0wxwxwx6wx---1009.6 996.0 1.9---------
2019-08-08 07:00:00 19.7 15.8 17.0--- 7810.0wxwxwx6wx---1009.2 995.6 1.9---------
2019-08-08 06:00:00 18.5 16.5 17.1--- 8810.0wxwxwx6wx---1008.5 994.8 1.6---------
2019-08-08 05:00:00 17.6 17.0 17.2--- 9610.0wx-wx4wx---1007.7 994.0 1.4---------
2019-08-08 04:00:00 16.4 16.1 16.2--- 987.0wx-wx4wx---1007.3 993.6 1.0---wx---
2019-08-08 03:00:00 17.2 17.0 17.0--- 996.0wxwxwx5wx---1006.9 993.2 0.8---wx---
2019-08-08 02:00:00 17.7 17.4 17.5--- 988.0wxwxwx5wx---1006.3 992.7 0.3---wx---
2019-08-08 01:00:00 18.1 17.9 17.9--- 9910.0wxwxwx5wx---1006.2 992.6 0.2---wx-w1w2--
2019-08-08 00:00:00 18.0 17.7 17.8--- 9810.0wxwxwx3wx---1006.1 992.4 0.4---wx-w2--
1.8 ms

 

Print Friendly, PDF & Email